sensor_id;sensor_type;location;lat;lon;timestamp;pressure;altitude;pressure_sealevel;temperature;humidity
15678;BME280;7939;50.814;6.368;2024-01-27T00:01:42;101748.88;;;10.01;58.19
15678;BME280;7939;50.814;6.368;2024-01-27T00:04:11;101743.59;;;9.96;58.43
15678;BME280;7939;50.814;6.368;2024-01-27T00:06:37;101745.34;;;9.97;58.83
15678;BME280;7939;50.814;6.368;2024-01-27T00:09:04;101745.28;;;9.96;58.25
15678;BME280;7939;50.814;6.368;2024-01-27T00:11:31;101739.19;;;9.92;58.16
15678;BME280;7939;50.814;6.368;2024-01-27T00:13:58;101737.50;;;9.93;58.34
15678;BME280;7939;50.814;6.368;2024-01-27T00:16:25;101742.56;;;9.91;58.45
15678;BME280;7939;50.814;6.368;2024-01-27T00:18:52;101741.91;;;9.97;58.33
15678;BME280;7939;50.814;6.368;2024-01-27T00:21:20;101743.59;;;9.96;58.53
15678;BME280;7939;50.814;6.368;2024-01-27T00:23:47;101749.41;;;9.92;58.63
15678;BME280;7939;50.814;6.368;2024-01-27T00:26:13;101754.53;;;9.92;58.17
15678;BME280;7939;50.814;6.368;2024-01-27T00:28:40;101757.03;;;9.91;58.32
15678;BME280;7939;50.814;6.368;2024-01-27T00:31:07;101757.84;;;9.90;58.78
15678;BME280;7939;50.814;6.368;2024-01-27T00:33:33;101757.06;;;9.92;58.64
15678;BME280;7939;50.814;6.368;2024-01-27T00:36:01;101762.13;;;9.91;58.63
15678;BME280;7939;50.814;6.368;2024-01-27T00:38:29;101765.69;;;9.94;58.53
15678;BME280;7939;50.814;6.368;2024-01-27T00:40:56;101765.50;;;9.90;58.42
15678;BME280;7939;50.814;6.368;2024-01-27T00:43:22;101767.25;;;9.91;58.42
15678;BME280;7939;50.814;6.368;2024-01-27T00:45:49;101763.78;;;9.89;59.06
15678;BME280;7939;50.814;6.368;2024-01-27T00:48:16;101768.09;;;9.91;58.46
15678;BME280;7939;50.814;6.368;2024-01-27T00:50:42;101765.34;;;9.85;58.92
15678;BME280;7939;50.814;6.368;2024-01-27T00:53:09;101779.06;;;9.87;58.68
15678;BME280;7939;50.814;6.368;2024-01-27T00:55:37;101770.56;;;9.88;58.38
15678;BME280;7939;50.814;6.368;2024-01-27T00:58:04;101773.00;;;9.85;58.55
15678;BME280;7939;50.814;6.368;2024-01-27T01:00:30;101774.75;;;9.86;58.63
15678;BME280;7939;50.814;6.368;2024-01-27T01:02:57;101777.38;;;9.88;58.91
15678;BME280;7939;50.814;6.368;2024-01-27T01:05:24;101773.78;;;9.83;58.25
15678;BME280;7939;50.814;6.368;2024-01-27T01:07:50;101767.06;;;9.86;58.48
15678;BME280;7939;50.814;6.368;2024-01-27T01:10:17;101775.56;;;9.85;58.68
15678;BME280;7939;50.814;6.368;2024-01-27T01:12:46;101770.44;;;9.85;58.79
15678;BME280;7939;50.814;6.368;2024-01-27T01:15:12;101770.53;;;9.87;58.39
15678;BME280;7939;50.814;6.368;2024-01-27T01:17:39;101765.34;;;9.85;58.71
15678;BME280;7939;50.814;6.368;2024-01-27T01:20:07;101766.13;;;9.83;58.85
15678;BME280;7939;50.814;6.368;2024-01-27T01:22:34;101769.53;;;9.83;58.87
15678;BME280;7939;50.814;6.368;2024-01-27T01:25:01;101774.59;;;9.82;58.90
15678;BME280;7939;50.814;6.368;2024-01-27T01:27:27;101775.63;;;9.87;58.83
15678;BME280;7939;50.814;6.368;2024-01-27T01:29:55;101775.50;;;9.84;59.08
15678;BME280;7939;50.814;6.368;2024-01-27T01:32:22;101778.06;;;9.84;59.09
15678;BME280;7939;50.814;6.368;2024-01-27T01:34:49;101781.41;;;9.81;59.25
15678;BME280;7939;50.814;6.368;2024-01-27T01:37:16;101780.56;;;9.82;59.24
15678;BME280;7939;50.814;6.368;2024-01-27T01:39:42;101782.13;;;9.79;58.53
15678;BME280;7939;50.814;6.368;2024-01-27T01:42:09;101788.94;;;9.78;59.17
15678;BME280;7939;50.814;6.368;2024-01-27T01:44:36;101783.00;;;9.79;58.96
15678;BME280;7939;50.814;6.368;2024-01-27T01:47:04;101778.66;;;9.77;59.28
15678;BME280;7939;50.814;6.368;2024-01-27T01:49:31;101785.56;;;9.79;58.88
15678;BME280;7939;50.814;6.368;2024-01-27T01:51:57;101784.69;;;9.79;58.83
15678;BME280;7939;50.814;6.368;2024-01-27T01:54:24;101786.31;;;9.77;58.88
15678;BME280;7939;50.814;6.368;2024-01-27T01:56:53;101787.06;;;9.74;59.35
15678;BME280;7939;50.814;6.368;2024-01-27T01:59:21;101788.00;;;9.76;59.06
15678;BME280;7939;50.814;6.368;2024-01-27T02:01:47;101790.53;;;9.75;59.24
15678;BME280;7939;50.814;6.368;2024-01-27T02:04:15;101790.44;;;9.73;59.13
15678;BME280;7939;50.814;6.368;2024-01-27T02:06:42;101793.94;;;9.75;58.99
15678;BME280;7939;50.814;6.368;2024-01-27T02:09:09;101799.84;;;9.74;59.19
15678;BME280;7939;50.814;6.368;2024-01-27T02:11:36;101786.19;;;9.73;59.08
15678;BME280;7939;50.814;6.368;2024-01-27T02:14:03;101786.16;;;9.72;58.76
15678;BME280;7939;50.814;6.368;2024-01-27T02:16:30;101786.16;;;9.72;58.67
15678;BME280;7939;50.814;6.368;2024-01-27T02:18:57;101793.63;;;9.67;58.95
15678;BME280;7939;50.814;6.368;2024-01-27T02:21:25;101796.16;;;9.66;58.76
15678;BME280;7939;50.814;6.368;2024-01-27T02:23:51;101788.66;;;9.70;58.82
15678;BME280;7939;50.814;6.368;2024-01-27T02:26:20;101796.16;;;9.66;58.75
15678;BME280;7939;50.814;6.368;2024-01-27T02:28:46;101788.50;;;9.66;58.46
15678;BME280;7939;50.814;6.368;2024-01-27T02:31:13;101783.94;;;9.57;58.35
15678;BME280;7939;50.814;6.368;2024-01-27T02:33:40;101796.78;;;9.60;58.30
15678;BME280;7939;50.814;6.368;2024-01-27T02:36:06;101796.69;;;9.57;58.72
15678;BME280;7939;50.814;6.368;2024-01-27T02:38:33;101790.81;;;9.60;58.79
15678;BME280;7939;50.814;6.368;2024-01-27T02:41:00;101787.31;;;9.56;58.41
15678;BME280;7939;50.814;6.368;2024-01-27T02:43:28;101793.19;;;9.55;58.96
15678;BME280;7939;50.814;6.368;2024-01-27T02:45:54;101787.34;;;9.58;58.97
15678;BME280;7939;50.814;6.368;2024-01-27T02:48:21;101788.03;;;9.54;58.83
15678;BME280;7939;50.814;6.368;2024-01-27T02:50:47;101787.94;;;9.51;58.57
15678;BME280;7939;50.814;6.368;2024-01-27T02:53:14;101787.19;;;9.53;58.72
15678;BME280;7939;50.814;6.368;2024-01-27T02:55:41;101784.63;;;9.53;58.64
15678;BME280;7939;50.814;6.368;2024-01-27T02:58:07;101793.09;;;9.52;58.26
15678;BME280;7939;50.814;6.368;2024-01-27T03:00:35;101789.50;;;9.47;58.75
15678;BME280;7939;50.814;6.368;2024-01-27T03:03:02;101789.56;;;9.49;58.76
15678;BME280;7939;50.814;6.368;2024-01-27T03:05:29;101794.78;;;9.52;58.81
15678;BME280;7939;50.814;6.368;2024-01-27T03:07:56;101791.25;;;9.48;58.63
15678;BME280;7939;50.814;6.368;2024-01-27T03:10:23;101793.00;;;9.49;58.54
15678;BME280;7939;50.814;6.368;2024-01-27T03:12:50;101786.94;;;9.47;58.92
15678;BME280;7939;50.814;6.368;2024-01-27T03:15:17;101789.56;;;9.49;58.63
15678;BME280;7939;50.814;6.368;2024-01-27T03:17:45;101794.78;;;9.52;58.61
15678;BME280;7939;50.814;6.368;2024-01-27T03:20:11;101790.38;;;9.48;58.95
15678;BME280;7939;50.814;6.368;2024-01-27T03:22:38;101788.03;;;9.54;58.81
15678;BME280;7939;50.814;6.368;2024-01-27T03:25:08;101791.38;;;9.51;59.09
15678;BME280;7939;50.814;6.368;2024-01-27T03:27:34;101780.13;;;9.46;59.17
15678;BME280;7939;50.814;6.368;2024-01-27T03:30:01;101787.09;;;9.50;58.90
15678;BME280;7939;50.814;6.368;2024-01-27T03:32:27;101792.22;;;9.52;58.75
15678;BME280;7939;50.814;6.368;2024-01-27T03:34:55;101793.78;;;9.48;58.31
15678;BME280;7939;50.814;6.368;2024-01-27T03:37:22;101795.38;;;9.44;58.68
15678;BME280;7939;50.814;6.368;2024-01-27T03:39:49;101787.69;;;9.43;58.80
15678;BME280;7939;50.814;6.368;2024-01-27T03:42:15;101787.72;;;9.44;58.78
15678;BME280;7939;50.814;6.368;2024-01-27T03:44:42;101796.75;;;9.36;58.52
15678;BME280;7939;50.814;6.368;2024-01-27T03:47:09;101799.44;;;9.39;58.86
15678;BME280;7939;50.814;6.368;2024-01-27T03:49:36;101801.16;;;9.40;59.03
15678;BME280;7939;50.814;6.368;2024-01-27T03:52:04;101790.97;;;9.40;58.50
15678;BME280;7939;50.814;6.368;2024-01-27T03:54:31;101795.19;;;9.40;58.70
15678;BME280;7939;50.814;6.368;2024-01-27T03:56:58;101790.00;;;9.37;59.06
15678;BME280;7939;50.814;6.368;2024-01-27T03:59:26;101806.09;;;9.36;58.47
15678;BME280;7939;50.814;6.368;2024-01-27T04:01:52;101818.75;;;9.33;58.85
15678;BME280;7939;50.814;6.368;2024-01-27T04:04:19;101821.25;;;9.31;58.59
15678;BME280;7939;50.814;6.368;2024-01-27T04:06:46;101814.28;;;9.27;57.95
15678;BME280;7939;50.814;6.368;2024-01-27T04:09:14;101812.59;;;9.28;58.36
15678;BME280;7939;50.814;6.368;2024-01-27T04:11:41;101823.72;;;9.30;58.40
15678;BME280;7939;50.814;6.368;2024-01-27T04:14:08;101810.88;;;9.27;58.14
15678;BME280;7939;50.814;6.368;2024-01-27T04:16:35;101819.28;;;9.24;58.30
15678;BME280;7939;50.814;6.368;2024-01-27T04:19:02;101814.09;;;9.23;58.38
15678;BME280;7939;50.814;6.368;2024-01-27T04:21:28;101814.03;;;9.21;58.61
15678;BME280;7939;50.814;6.368;2024-01-27T04:23:55;101811.53;;;9.23;58.38
15678;BME280;7939;50.814;6.368;2024-01-27T04:26:23;101821.66;;;9.19;58.08
15678;BME280;7939;50.814;6.368;2024-01-27T04:28:50;101821.69;;;9.21;58.56
15678;BME280;7939;50.814;6.368;2024-01-27T04:31:16;101819.97;;;9.20;58.17
15678;BME280;7939;50.814;6.368;2024-01-27T04:33:43;101819.09;;;9.19;58.04
15678;BME280;7939;50.814;6.368;2024-01-27T04:36:10;101824.16;;;9.18;58.31
15678;BME280;7939;50.814;6.368;2024-01-27T04:38:37;101819.91;;;9.18;58.67
15678;BME280;7939;50.814;6.368;2024-01-27T04:41:03;101833.44;;;9.17;58.29
15678;BME280;7939;50.814;6.368;2024-01-27T04:43:32;101825.00;;;9.18;58.45
15678;BME280;7939;50.814;6.368;2024-01-27T04:45:58;101817.22;;;9.15;58.51
15678;BME280;7939;50.814;6.368;2024-01-27T04:48:25;101826.47;;;9.12;58.49
15678;BME280;7939;50.814;6.368;2024-01-27T04:50:52;101828.13;;;9.11;58.20
15678;BME280;7939;50.814;6.368;2024-01-27T04:53:19;101827.44;;;9.15;58.29
15678;BME280;7939;50.814;6.368;2024-01-27T04:55:45;101825.75;;;9.16;58.28
15678;BME280;7939;50.814;6.368;2024-01-27T04:58:12;101824.88;;;9.15;58.62
15678;BME280;7939;50.814;6.368;2024-01-27T05:00:41;101830.69;;;9.11;58.21
15678;BME280;7939;50.814;6.368;2024-01-27T05:03:07;101826.47;;;9.12;58.46
15678;BME280;7939;50.814;6.368;2024-01-27T05:05:40;101830.69;;;9.11;58.49
15678;BME280;7939;50.814;6.368;2024-01-27T05:08:07;101818.81;;;9.12;58.00
15678;BME280;7939;50.814;6.368;2024-01-27T05:10:34;101828.81;;;9.07;58.62
15678;BME280;7939;50.814;6.368;2024-01-27T05:13:01;101823.78;;;9.09;58.07
15678;BME280;7939;50.814;6.368;2024-01-27T05:15:27;101822.84;;;9.07;58.73
15678;BME280;7939;50.814;6.368;2024-01-27T05:17:55;101814.25;;;9.05;58.52
15678;BME280;7939;50.814;6.368;2024-01-27T05:20:22;101813.47;;;9.06;58.54
15678;BME280;7939;50.814;6.368;2024-01-27T05:22:49;101816.88;;;9.06;58.46
15678;BME280;7939;50.814;6.368;2024-01-27T05:25:15;101822.81;;;9.05;58.36
15678;BME280;7939;50.814;6.368;2024-01-27T05:27:42;101818.50;;;9.04;58.95
15678;BME280;7939;50.814;6.368;2024-01-27T05:30:10;101818.50;;;9.04;58.32
15678;BME280;7939;50.814;6.368;2024-01-27T05:32:37;101815.16;;;9.05;58.19
15678;BME280;7939;50.814;6.368;2024-01-27T05:35:06;101812.59;;;9.05;58.34
15678;BME280;7939;50.814;6.368;2024-01-27T05:37:33;101811.69;;;9.05;58.30
15678;BME280;7939;50.814;6.368;2024-01-27T05:40:00;101811.69;;;9.05;58.70
15678;BME280;7939;50.814;6.368;2024-01-27T05:42:27;101811.59;;;9.02;58.25
15678;BME280;7939;50.814;6.368;2024-01-27T05:44:54;101814.97;;;9.01;58.38
15678;BME280;7939;50.814;6.368;2024-01-27T05:47:21;101814.81;;;8.98;58.13
15678;BME280;7939;50.814;6.368;2024-01-27T05:49:48;101822.56;;;8.99;58.31
15678;BME280;7939;50.814;6.368;2024-01-27T05:52:16;101810.59;;;8.98;59.05
15678;BME280;7939;50.814;6.368;2024-01-27T05:54:43;101810.69;;;9.00;58.92
15678;BME280;7939;50.814;6.368;2024-01-27T05:57:09;101807.19;;;8.98;58.58
15678;BME280;7939;50.814;6.368;2024-01-27T05:59:36;101811.53;;;9.00;58.63
15678;BME280;7939;50.814;6.368;2024-01-27T06:02:03;101818.25;;;8.98;58.30
15678;BME280;7939;50.814;6.368;2024-01-27T06:04:30;101823.34;;;8.98;58.96
15678;BME280;7939;50.814;6.368;2024-01-27T06:06:58;101819.81;;;8.95;58.52
15678;BME280;7939;50.814;6.368;2024-01-27T06:09:27;101819.88;;;8.96;59.20
15678;BME280;7939;50.814;6.368;2024-01-27T06:11:53;101824.97;;;8.96;58.66
15678;BME280;7939;50.814;6.368;2024-01-27T06:14:20;101824.94;;;8.95;58.74
15678;BME280;7939;50.814;6.368;2024-01-27T06:16:47;101818.97;;;8.94;58.74
15678;BME280;7939;50.814;6.368;2024-01-27T06:19:14;101822.31;;;8.93;58.21
15678;BME280;7939;50.814;6.368;2024-01-27T06:21:41;101828.09;;;8.89;58.64
15678;BME280;7939;50.814;6.368;2024-01-27T06:24:08;101832.44;;;8.91;58.50
15678;BME280;7939;50.814;6.368;2024-01-27T06:26:36;101833.19;;;8.89;58.79
15678;BME280;7939;50.814;6.368;2024-01-27T06:29:03;101837.44;;;8.88;58.45
15678;BME280;7939;50.814;6.368;2024-01-27T06:31:30;101833.13;;;8.87;58.37
15678;BME280;7939;50.814;6.368;2024-01-27T06:33:56;101821.22;;;8.86;58.47
15678;BME280;7939;50.814;6.368;2024-01-27T06:36:23;101829.72;;;8.87;58.37
15678;BME280;7939;50.814;6.368;2024-01-27T06:38:52;101833.13;;;8.87;58.75
15678;BME280;7939;50.814;6.368;2024-01-27T06:41:19;101829.72;;;8.87;58.55
15678;BME280;7939;50.814;6.368;2024-01-27T06:43:47;101824.63;;;8.87;58.93
15678;BME280;7939;50.814;6.368;2024-01-27T06:46:13;101828.78;;;8.85;58.55
15678;BME280;7939;50.814;6.368;2024-01-27T06:48:40;101819.38;;;8.84;58.56
15678;BME280;7939;50.814;6.368;2024-01-27T06:51:07;101819.28;;;8.81;59.10
15678;BME280;7939;50.814;6.368;2024-01-27T06:53:34;101825.31;;;8.83;59.26
15678;BME280;7939;50.814;6.368;2024-01-27T06:56:01;101814.25;;;8.82;59.07
15678;BME280;7939;50.814;6.368;2024-01-27T06:58:27;101821.03;;;8.82;59.08
15678;BME280;7939;50.814;6.368;2024-01-27T07:00:56;101826.13;;;8.82;58.80
15678;BME280;7939;50.814;6.368;2024-01-27T07:03:23;101832.91;;;8.81;58.86
15678;BME280;7939;50.814;6.368;2024-01-27T07:05:50;101831.94;;;8.79;58.41
15678;BME280;7939;50.814;6.368;2024-01-27T07:08:16;101837.03;;;8.79;59.06
15678;BME280;7939;50.814;6.368;2024-01-27T07:10:43;101825.06;;;8.77;58.91
15678;BME280;7939;50.814;6.368;2024-01-27T07:13:11;101826.84;;;8.79;59.15
15678;BME280;7939;50.814;6.368;2024-01-27T07:15:38;101817.41;;;8.77;59.21
15678;BME280;7939;50.814;6.368;2024-01-27T07:18:06;101834.38;;;8.76;58.35
15678;BME280;7939;50.814;6.368;2024-01-27T07:20:34;101825.06;;;8.77;58.69
15678;BME280;7939;50.814;6.368;2024-01-27T07:23:01;101840.28;;;8.75;59.16
15678;BME280;7939;50.814;6.368;2024-01-27T07:25:28;101845.34;;;8.74;58.40
15678;BME280;7939;50.814;6.368;2024-01-27T07:27:55;101847.94;;;8.75;58.94
15678;BME280;7939;50.814;6.368;2024-01-27T07:30:21;101857.13;;;8.72;58.73
15678;BME280;7939;50.814;6.368;2024-01-27T07:32:48;101860.53;;;8.72;59.31
15678;BME280;7939;50.814;6.368;2024-01-27T07:35:16;101864.84;;;8.73;58.61
15678;BME280;7939;50.814;6.368;2024-01-27T07:37:43;101866.50;;;8.73;59.09
15678;BME280;7939;50.814;6.368;2024-01-27T07:40:10;101871.69;;;8.74;58.69
15678;BME280;7939;50.814;6.368;2024-01-27T07:42:37;101880.06;;;8.72;58.46
15678;BME280;7939;50.814;6.368;2024-01-27T07:45:05;101884.31;;;8.71;58.75
15678;BME280;7939;50.814;6.368;2024-01-27T07:47:32;101891.88;;;8.70;59.03
15678;BME280;7939;50.814;6.368;2024-01-27T07:49:58;101886.03;;;8.72;58.68
15678;BME280;7939;50.814;6.368;2024-01-27T07:52:26;101890.25;;;8.72;59.32
15678;BME280;7939;50.814;6.368;2024-01-27T07:54:53;101893.56;;;8.69;59.13
15678;BME280;7939;50.814;6.368;2024-01-27T07:57:20;101891.03;;;8.69;58.42
15678;BME280;7939;50.814;6.368;2024-01-27T07:59:47;101891.94;;;8.71;59.35
15678;BME280;7939;50.814;6.368;2024-01-27T08:02:14;101891.88;;;8.70;58.88
15678;BME280;7939;50.814;6.368;2024-01-27T08:04:41;101896.84;;;8.67;58.76
15678;BME280;7939;50.814;6.368;2024-01-27T08:07:07;101902.91;;;8.69;58.20
15678;BME280;7939;50.814;6.368;2024-01-27T08:09:37;101886.59;;;8.65;59.09
15678;BME280;7939;50.814;6.368;2024-01-27T08:12:05;101891.69;;;8.65;58.97
15678;BME280;7939;50.814;6.368;2024-01-27T08:14:32;101895.97;;;8.66;58.49
15678;BME280;7939;50.814;6.368;2024-01-27T08:17:01;101895.06;;;8.64;59.18
15678;BME280;7939;50.814;6.368;2024-01-27T08:19:28;101897.66;;;8.65;59.13
15678;BME280;7939;50.814;6.368;2024-01-27T08:21:55;101900.22;;;8.65;58.51
15678;BME280;7939;50.814;6.368;2024-01-27T08:24:22;101899.34;;;8.65;59.22
15678;BME280;7939;50.814;6.368;2024-01-27T08:26:50;101897.66;;;8.65;59.18
15678;BME280;7939;50.814;6.368;2024-01-27T08:29:17;101890.88;;;8.66;59.41
15678;BME280;7939;50.814;6.368;2024-01-27T08:31:44;101888.41;;;8.68;58.69
15678;BME280;7939;50.814;6.368;2024-01-27T08:34:10;101889.19;;;8.67;59.21
15678;BME280;7939;50.814;6.368;2024-01-27T08:36:39;101883.22;;;8.66;58.66
15678;BME280;7939;50.814;6.368;2024-01-27T08:39:06;101882.50;;;8.69;59.17
15678;BME280;7939;50.814;6.368;2024-01-27T08:41:34;101895.25;;;8.69;58.89
15678;BME280;7939;50.814;6.368;2024-01-27T08:44:03;101894.44;;;8.70;58.89
15678;BME280;7939;50.814;6.368;2024-01-27T08:46:30;101890.16;;;8.69;59.15
15678;BME280;7939;50.814;6.368;2024-01-27T08:48:56;101888.47;;;8.69;59.22
15678;BME280;7939;50.814;6.368;2024-01-27T08:51:23;101879.16;;;8.70;59.41
15678;BME280;7939;50.814;6.368;2024-01-27T08:53:50;101884.31;;;8.71;59.09
15678;BME280;7939;50.814;6.368;2024-01-27T08:56:17;101878.38;;;8.72;59.35
15678;BME280;7939;50.814;6.368;2024-01-27T08:58:44;101876.72;;;8.73;59.21
15678;BME280;7939;50.814;6.368;2024-01-27T09:01:15;101871.59;;;8.73;58.97
15678;BME280;7939;50.814;6.368;2024-01-27T09:03:42;101875.13;;;8.75;59.44
15678;BME280;7939;50.814;6.368;2024-01-27T09:06:09;101878.47;;;8.74;58.86
15678;BME280;7939;50.814;6.368;2024-01-27T09:08:36;101873.44;;;8.75;58.77
15678;BME280;7939;50.814;6.368;2024-01-27T09:11:03;101877.72;;;8.76;59.38
15678;BME280;7939;50.814;6.368;2024-01-27T09:13:30;101863.28;;;8.77;59.25
15678;BME280;7939;50.814;6.368;2024-01-27T09:15:57;101857.44;;;8.79;59.18
15678;BME280;7939;50.814;6.368;2024-01-27T09:18:26;101859.19;;;8.80;58.78
15678;BME280;7939;50.814;6.368;2024-01-27T09:20:53;101866.97;;;8.83;59.44
15678;BME280;7939;50.814;6.368;2024-01-27T09:23:19;101866.91;;;8.82;59.40
15678;BME280;7939;50.814;6.368;2024-01-27T09:25:46;101868.63;;;8.83;58.97
15678;BME280;7939;50.814;6.368;2024-01-27T09:28:13;101869.56;;;8.85;58.75
15678;BME280;7939;50.814;6.368;2024-01-27T09:30:41;101873.94;;;8.87;59.31
15678;BME280;7939;50.814;6.368;2024-01-27T09:33:08;101878.22;;;8.88;58.92
15678;BME280;7939;50.814;6.368;2024-01-27T09:35:36;101885.09;;;8.91;59.50
15678;BME280;7939;50.814;6.368;2024-01-27T09:38:03;101889.47;;;8.94;59.35
15678;BME280;7939;50.814;6.368;2024-01-27T09:40:30;101889.53;;;8.95;58.81
15678;BME280;7939;50.814;6.368;2024-01-27T09:42:59;101891.28;;;8.96;59.33
15678;BME280;7939;50.814;6.368;2024-01-27T09:45:26;101879.44;;;8.98;59.00
15678;BME280;7939;50.814;6.368;2024-01-27T09:47:54;101887.19;;;9.00;59.15
15678;BME280;7939;50.814;6.368;2024-01-27T09:50:23;101883.88;;;9.02;59.32
15678;BME280;7939;50.814;6.368;2024-01-27T09:52:51;101884.75;;;9.03;59.67
15678;BME280;7939;50.814;6.368;2024-01-27T09:55:19;101883.09;;;9.05;58.90
15678;BME280;7939;50.814;6.368;2024-01-27T09:57:46;101883.19;;;9.06;59.04
15678;BME280;7939;50.814;6.368;2024-01-27T10:00:13;101879.84;;;9.07;59.51
15678;BME280;7939;50.814;6.368;2024-01-27T10:02:42;101881.63;;;9.10;59.60
15678;BME280;7939;50.814;6.368;2024-01-27T10:05:09;101882.50;;;9.10;59.47
15678;BME280;7939;50.814;6.368;2024-01-27T10:07:37;101892.00;;;9.14;59.00
15678;BME280;7939;50.814;6.368;2024-01-27T10:10:06;101896.34;;;9.17;59.56
15678;BME280;7939;50.814;6.368;2024-01-27T10:12:37;101896.06;;;9.30;60.04
15678;BME280;7939;50.814;6.368;2024-01-27T10:15:06;101893.50;;;9.30;59.55
15678;BME280;7939;50.814;6.368;2024-01-27T10:17:33;101889.19;;;9.29;59.05
15678;BME280;7939;50.814;6.368;2024-01-27T10:20:04;101888.50;;;9.33;59.51
15678;BME280;7939;50.814;6.368;2024-01-27T10:22:40;101893.59;;;9.33;59.67
15678;BME280;7939;50.814;6.368;2024-01-27T10:25:08;101892.78;;;9.34;59.29
15678;BME280;7939;50.814;6.368;2024-01-27T10:27:35;101884.28;;;9.34;59.24
15678;BME280;7939;50.814;6.368;2024-01-27T10:30:03;101886.06;;;9.36;58.99
15678;BME280;7939;50.814;6.368;2024-01-27T10:32:29;101882.78;;;9.39;59.47
15678;BME280;7939;50.814;6.368;2024-01-27T10:35:04;101883.59;;;9.38;59.13
15678;BME280;7939;50.814;6.368;2024-01-27T10:37:30;101889.41;;;9.35;59.11
15678;BME280;7939;50.814;6.368;2024-01-27T10:40:01;101893.66;;;9.35;58.99
15678;BME280;7939;50.814;6.368;2024-01-27T10:42:30;101892.97;;;9.39;59.15
15678;BME280;7939;50.814;6.368;2024-01-27T10:44:58;101890.47;;;9.40;58.89
15678;BME280;7939;50.814;6.368;2024-01-27T10:47:27;101889.75;;;9.43;58.37
15678;BME280;7939;50.814;6.368;2024-01-27T10:49:55;101886.28;;;9.42;58.83
15678;BME280;7939;50.814;6.368;2024-01-27T10:52:23;101873.66;;;9.45;58.23
15678;BME280;7939;50.814;6.368;2024-01-27T10:54:57;101866.69;;;9.41;58.27
15678;BME280;7939;50.814;6.368;2024-01-27T10:57:25;101869.31;;;9.43;58.31
15678;BME280;7939;50.814;6.368;2024-01-27T10:59:55;101864.84;;;9.37;57.69
15678;BME280;7939;50.814;6.368;2024-01-27T11:02:23;101861.59;;;9.41;57.95
15678;BME280;7939;50.814;6.368;2024-01-27T11:04:50;101857.53;;;9.46;57.46
15678;BME280;7939;50.814;6.368;2024-01-27T11:07:21;101866.09;;;9.49;57.14
15678;BME280;7939;50.814;6.368;2024-01-27T11:09:48;101880.22;;;9.39;56.87
15678;BME280;7939;50.814;6.368;2024-01-27T11:12:17;101885.59;;;9.46;57.00
15678;BME280;7939;50.814;6.368;2024-01-27T11:14:46;101880.69;;;9.51;57.03
15678;BME280;7939;50.814;6.368;2024-01-27T11:17:14;101880.75;;;9.53;57.29
15678;BME280;7939;50.814;6.368;2024-01-27T11:19:41;101884.06;;;9.50;56.29
15678;BME280;7939;50.814;6.368;2024-01-27T11:22:08;101883.94;;;9.47;56.43
15678;BME280;7939;50.814;6.368;2024-01-27T11:24:34;101884.94;;;9.51;56.07
15678;BME280;7939;50.814;6.368;2024-01-27T11:27:02;101886.75;;;9.55;56.04
15678;BME280;7939;50.814;6.368;2024-01-27T11:29:29;101893.56;;;9.54;56.67
15678;BME280;7939;50.814;6.368;2024-01-27T11:31:59;101895.38;;;9.57;55.83
15678;BME280;7939;50.814;6.368;2024-01-27T11:34:28;101898.88;;;9.60;56.03
15678;BME280;7939;50.814;6.368;2024-01-27T11:36:55;101901.53;;;9.62;56.25
15678;BME280;7939;50.814;6.368;2024-01-27T11:39:26;101897.78;;;9.54;55.14
15678;BME280;7939;50.814;6.368;2024-01-27T11:42:03;101887.28;;;9.46;54.63
15678;BME280;7939;50.814;6.368;2024-01-27T11:44:30;101884.97;;;9.52;55.00
15678;BME280;7939;50.814;6.368;2024-01-27T11:46:57;101894.59;;;9.59;55.17
15678;BME280;7939;50.814;6.368;2024-01-27T11:49:25;101898.78;;;9.57;55.33
15678;BME280;7939;50.814;6.368;2024-01-27T11:51:53;101890.19;;;9.55;54.24
15678;BME280;7939;50.814;6.368;2024-01-27T11:54:20;101882.47;;;9.54;54.32
15678;BME280;7939;50.814;6.368;2024-01-27T11:56:46;101892.88;;;9.58;54.39
15678;BME280;7939;50.814;6.368;2024-01-27T11:59:14;101893.88;;;9.62;54.44
15678;BME280;7939;50.814;6.368;2024-01-27T12:01:41;101890.38;;;9.60;54.33
15678;BME280;7939;50.814;6.368;2024-01-27T12:04:09;101886.31;;;9.65;55.38
15678;BME280;7939;50.814;6.368;2024-01-27T12:06:36;101876.03;;;9.63;54.18
15678;BME280;7939;50.814;6.368;2024-01-27T12:09:05;101879.53;;;9.65;54.61
15678;BME280;7939;50.814;6.368;2024-01-27T12:11:37;101882.13;;;9.67;54.33
15678;BME280;7939;50.814;6.368;2024-01-27T12:14:05;101872.91;;;9.70;54.34
15678;BME280;7939;50.814;6.368;2024-01-27T12:16:32;101875.47;;;9.70;55.04
15678;BME280;7939;50.814;6.368;2024-01-27T12:18:59;101866.94;;;9.70;54.65
15678;BME280;7939;50.814;6.368;2024-01-27T12:21:26;101867.03;;;9.73;55.04
15678;BME280;7939;50.814;6.368;2024-01-27T12:23:54;101868.66;;;9.71;54.85
15678;BME280;7939;50.814;6.368;2024-01-27T12:26:22;101861.19;;;9.76;54.58
15678;BME280;7939;50.814;6.368;2024-01-27T12:28:49;101862.88;;;9.75;54.42
15678;BME280;7939;50.814;6.368;2024-01-27T12:31:17;101856.19;;;9.79;54.77
15678;BME280;7939;50.814;6.368;2024-01-27T12:33:51;101856.19;;;9.79;54.52
15678;BME280;7939;50.814;6.368;2024-01-27T12:36:19;101854.44;;;9.78;54.66
15678;BME280;7939;50.814;6.368;2024-01-27T12:38:47;101861.19;;;9.76;53.65
15678;BME280;7939;50.814;6.368;2024-01-27T12:41:18;101861.41;;;9.82;53.96
15678;BME280;7939;50.814;6.368;2024-01-27T12:43:46;101858.63;;;9.76;53.76
15678;BME280;7939;50.814;6.368;2024-01-27T12:46:14;101858.97;;;9.85;54.58
15678;BME280;7939;50.814;6.368;2024-01-27T12:48:42;101855.44;;;9.81;54.79
15678;BME280;7939;50.814;6.368;2024-01-27T12:51:09;101852.13;;;9.84;54.36
15678;BME280;7939;50.814;6.368;2024-01-27T12:53:36;101845.38;;;9.86;54.10
15678;BME280;7939;50.814;6.368;2024-01-27T12:56:04;101851.34;;;9.86;54.49
15678;BME280;7939;50.814;6.368;2024-01-27T12:58:31;101846.22;;;9.86;54.21
15678;BME280;7939;50.814;6.368;2024-01-27T13:00:59;101852.34;;;9.90;54.17
15678;BME280;7939;50.814;6.368;2024-01-27T13:03:25;101854.13;;;9.92;54.22
15678;BME280;7939;50.814;6.368;2024-01-27T13:05:53;101844.78;;;9.93;54.13
15678;BME280;7939;50.814;6.368;2024-01-27T13:08:20;101842.22;;;9.93;54.62
15678;BME280;7939;50.814;6.368;2024-01-27T13:10:47;101838.06;;;9.95;53.98